首页
METAR-TAF:

METAR-TAF

机场 :

昂热, 法国

纬度: 47-33-37N, 经度: 000-18-44W, 海拔: 59米

当前天气观测

该预报发布于38分钟前的19:00 UTC
风速10节,风向西南
温度 8°C
湿度 76%
气压 1028 hPa
能见度10公里或以上
1500米以下无云,无积雨云

METAR: LFJR 181900Z AUTO 22010KT CAVOK 08/04 Q1028

时间: 20:38 (19:38 UTC)


TAF: 丢失

超过4000个机场的气象观测和天气预报(METAR&TAF报告)。

可查询的气象台以黄色和红色小点在地图上表示。

将鼠标移到小点上方,可查看气象台名称。

然后点击查看天气观测和预报。

如需切换地图:点击带黑十字的绿色按钮放大地图;点击带横线的绿色按钮缩小地图;或者点击绿色箭头查看邻近地区的地图。


METAR-TAF: